createdAt,value
2018-09-06T00:01:20.221Z,18.70
2018-09-06T00:03:49.282Z,18.70
2018-09-06T00:06:18.172Z,18.60
2018-09-06T00:08:47.100Z,18.60
2018-09-06T00:11:16.776Z,18.50
2018-09-06T00:13:45.808Z,18.50
2018-09-06T00:16:14.717Z,18.50
2018-09-06T00:18:43.765Z,18.50
2018-09-06T00:21:12.628Z,18.50
2018-09-06T00:23:41.525Z,18.40
2018-09-06T00:26:10.465Z,18.40
2018-09-06T00:28:39.407Z,18.40
2018-09-06T00:31:08.414Z,18.40
2018-09-06T00:33:37.292Z,18.40
2018-09-06T00:36:06.412Z,18.50
2018-09-06T00:38:35.312Z,18.50
2018-09-06T00:41:04.286Z,18.40
2018-09-06T00:43:33.244Z,18.40
2018-09-06T00:46:02.185Z,18.30
2018-09-06T00:48:31.123Z,18.30
2018-09-06T00:51:00.024Z,18.30
2018-09-06T00:53:28.880Z,18.20
2018-09-06T00:55:57.934Z,18.20
2018-09-06T00:58:26.895Z,18.20
2018-09-06T01:00:55.823Z,18.20
2018-09-06T01:03:24.735Z,18.20
2018-09-06T01:05:53.779Z,18.20
2018-09-06T01:08:22.920Z,18.20
2018-09-06T01:10:51.761Z,18.10
2018-09-06T01:13:20.618Z,18.10
2018-09-06T01:15:49.523Z,18.10
2018-09-06T01:18:18.475Z,18.10
2018-09-06T01:20:47.527Z,18.10
2018-09-06T01:23:16.383Z,18.10
2018-09-06T01:25:47.107Z,18.10
2018-09-06T01:28:17.796Z,18.00
2018-09-06T01:30:46.728Z,18.00
2018-09-06T01:33:15.620Z,18.00
2018-09-06T01:35:49.081Z,18.00
2018-09-06T01:38:18.029Z,18.10
2018-09-06T01:40:46.961Z,18.10
2018-09-06T01:43:15.893Z,18.10
2018-09-06T01:45:44.967Z,18.10
2018-09-06T01:48:13.838Z,18.10
2018-09-06T01:50:42.683Z,18.10
2018-09-06T01:53:11.524Z,18.10
2018-09-06T01:55:40.407Z,18.10
2018-09-06T01:58:09.276Z,18.00
2018-09-06T02:00:38.147Z,18.10
2018-09-06T02:03:07.104Z,18.00
2018-09-06T02:05:36.611Z,18.00
2018-09-06T02:08:06.927Z,18.00
2018-09-06T02:10:36.035Z,18.10
2018-09-06T02:13:04.898Z,18.00
2018-09-06T02:15:33.831Z,18.00
2018-09-06T02:18:02.703Z,18.00
2018-09-06T02:20:31.651Z,17.90
2018-09-06T02:23:00.493Z,17.90
2018-09-06T02:25:29.420Z,17.90
2018-09-06T02:27:58.284Z,17.80
2018-09-06T02:30:27.407Z,17.90
2018-09-06T02:32:56.290Z,17.90
2018-09-06T02:35:25.149Z,17.90
2018-09-06T02:37:54.019Z,17.80
2018-09-06T02:40:28.624Z,17.80
2018-09-06T02:42:57.439Z,17.80
2018-09-06T02:45:26.299Z,17.70
2018-09-06T02:47:55.952Z,17.70
2018-09-06T02:50:30.611Z,17.60
2018-09-06T02:52:59.509Z,17.60
2018-09-06T02:55:29.133Z,17.50
2018-09-06T02:57:58.764Z,17.50
2018-09-06T03:00:31.928Z,17.50
2018-09-06T03:03:00.872Z,17.50
2018-09-06T03:05:29.723Z,17.40
2018-09-06T03:07:59.568Z,17.40
2018-09-06T03:10:34.570Z,17.40
2018-09-06T03:13:03.516Z,17.40
2018-09-06T03:15:32.465Z,17.50
2018-09-06T03:18:01.251Z,17.50
2018-09-06T03:20:30.156Z,17.50
2018-09-06T03:22:59.029Z,17.50
2018-09-06T03:25:27.875Z,17.50
2018-09-06T03:27:56.721Z,17.50
2018-09-06T03:30:25.675Z,17.40
2018-09-06T03:32:54.522Z,17.40
2018-09-06T03:35:23.417Z,17.40
2018-09-06T03:37:52.288Z,17.40
2018-09-06T03:40:21.184Z,17.40
2018-09-06T03:42:50.122Z,17.50
2018-09-06T03:45:18.999Z,17.40
2018-09-06T03:47:47.830Z,17.40
2018-09-06T03:50:16.787Z,17.40
2018-09-06T03:52:45.643Z,17.30
2018-09-06T03:55:15.017Z,17.30
2018-09-06T03:57:43.964Z,17.30
2018-09-06T04:00:12.917Z,17.30
2018-09-06T04:02:41.807Z,17.20
2018-09-06T04:05:10.683Z,17.20
2018-09-06T04:07:39.686Z,17.20
2018-09-06T04:10:08.568Z,17.20
2018-09-06T04:12:37.412Z,17.20
2018-09-06T04:15:06.512Z,17.30
2018-09-06T04:17:35.375Z,17.30
2018-09-06T04:20:04.952Z,17.20
2018-09-06T04:22:33.836Z,17.20
2018-09-06T04:25:02.694Z,17.10
2018-09-06T04:27:31.537Z,17.10
2018-09-06T04:30:00.446Z,17.00
2018-09-06T04:32:29.344Z,16.90
2018-09-06T04:34:58.244Z,16.90
2018-09-06T04:37:27.124Z,16.90
2018-09-06T04:39:56.078Z,16.80
2018-09-06T04:42:24.974Z,16.80
2018-09-06T04:44:53.897Z,16.90
2018-09-06T04:47:22.770Z,16.90
2018-09-06T04:49:51.768Z,16.90
2018-09-06T04:52:20.627Z,17.00
2018-09-06T04:54:49.486Z,17.00
2018-09-06T04:57:18.348Z,17.10
2018-09-06T04:59:47.347Z,17.10
2018-09-06T05:02:16.196Z,17.20
2018-09-06T05:04:45.028Z,17.30
2018-09-06T05:07:13.899Z,17.20
2018-09-06T05:09:42.880Z,17.30
2018-09-06T05:12:11.735Z,17.30
2018-09-06T05:14:40.611Z,17.30
2018-09-06T05:17:09.656Z,17.40
2018-09-06T05:19:38.731Z,17.40
2018-09-06T05:22:07.786Z,17.40
2018-09-06T05:24:36.621Z,17.40
2018-09-06T05:27:05.531Z,17.40
2018-09-06T05:29:34.417Z,17.40
2018-09-06T05:32:03.284Z,17.50
2018-09-06T05:34:32.111Z,17.60
2018-09-06T05:37:00.957Z,17.60
2018-09-06T05:39:29.908Z,17.60
2018-09-06T05:41:58.785Z,17.50
2018-09-06T05:44:27.631Z,17.50
2018-09-06T05:46:56.530Z,17.50
2018-09-06T05:49:25.435Z,17.40
2018-09-06T05:51:54.288Z,17.40
2018-09-06T05:54:23.135Z,17.40
2018-09-06T05:56:52.010Z,17.40
2018-09-06T05:59:20.912Z,17.40
2018-09-06T06:01:49.797Z,17.50
2018-09-06T06:04:18.667Z,17.60
2018-09-06T06:06:47.548Z,17.70
2018-09-06T06:09:16.457Z,17.70
2018-09-06T06:11:45.356Z,17.80
2018-09-06T06:14:14.213Z,17.80
2018-09-06T06:16:43.047Z,17.80
2018-09-06T06:19:12.020Z,17.80
2018-09-06T06:21:40.878Z,17.90
2018-09-06T06:24:09.740Z,17.90
2018-09-06T06:26:38.591Z,17.90
2018-09-06T06:29:07.691Z,17.90
2018-09-06T06:31:36.588Z,18.00
2018-09-06T06:34:05.501Z,18.00
2018-09-06T06:36:34.388Z,18.10
2018-09-06T06:39:05.700Z,18.00
2018-09-06T06:41:34.563Z,18.00
2018-09-06T06:44:03.442Z,18.10
2018-09-06T06:46:32.360Z,18.10
2018-09-06T06:49:01.308Z,18.20
2018-09-06T06:51:30.183Z,18.20
2018-09-06T06:53:59.123Z,18.20
2018-09-06T06:56:28.024Z,18.30
2018-09-06T06:58:56.970Z,18.20
2018-09-06T07:01:25.865Z,18.20
2018-09-06T07:03:54.744Z,18.20
2018-09-06T07:06:23.612Z,18.30
2018-09-06T07:08:52.484Z,18.30
2018-09-06T07:11:21.367Z,18.30
2018-09-06T07:13:50.271Z,18.30
2018-09-06T07:16:19.121Z,18.40
2018-09-06T07:18:48.082Z,18.30
2018-09-06T07:21:17.035Z,18.40
2018-09-06T07:23:45.912Z,18.50
2018-09-06T07:26:14.766Z,18.60
2018-09-06T07:28:43.728Z,18.60
2018-09-06T07:31:12.648Z,18.60
2018-09-06T07:33:41.595Z,18.70
2018-09-06T07:36:10.460Z,18.70
2018-09-06T07:38:39.415Z,18.80
2018-09-06T07:41:08.353Z,18.80
2018-09-06T07:43:37.149Z,18.80
2018-09-06T07:46:06.252Z,18.90
2018-09-06T07:48:35.152Z,19.00
2018-09-06T07:51:04.037Z,19.00
2018-09-06T07:53:32.892Z,19.00
2018-09-06T07:56:01.772Z,19.10
2018-09-06T07:58:30.707Z,19.10
2018-09-06T08:00:59.699Z,19.20
2018-09-06T08:03:28.612Z,19.30
2018-09-06T08:05:57.481Z,19.30
2018-09-06T08:08:26.395Z,19.40
2018-09-06T08:10:55.236Z,19.50
2018-09-06T08:13:24.143Z,19.50
2018-09-06T08:15:52.994Z,19.50
2018-09-06T08:18:21.974Z,19.60
2018-09-06T08:20:50.926Z,19.70
2018-09-06T08:23:19.883Z,19.70
2018-09-06T08:25:48.907Z,19.70
2018-09-06T08:28:17.841Z,19.80
2018-09-06T08:30:47.660Z,19.80
2018-09-06T08:33:16.501Z,19.90
2018-09-06T08:35:45.442Z,19.90
2018-09-06T08:38:14.339Z,20.00
2018-09-06T08:40:43.235Z,20.10
2018-09-06T08:43:12.117Z,20.20
2018-09-06T08:45:40.972Z,20.20
2018-09-06T08:48:09.871Z,20.30
2018-09-06T08:50:38.751Z,20.30
2018-09-06T08:53:07.701Z,20.40
2018-09-06T08:55:36.604Z,20.40
2018-09-06T08:58:05.528Z,20.50
2018-09-06T09:00:39.152Z,20.50
2018-09-06T09:03:08.664Z,20.50
2018-09-06T09:05:37.580Z,20.60
2018-09-06T09:08:06.499Z,20.60
2018-09-06T09:10:35.360Z,20.70
2018-09-06T09:13:04.348Z,20.80
2018-09-06T09:15:33.159Z,20.80
2018-09-06T09:18:02.041Z,20.80
2018-09-06T09:20:31.061Z,20.80
2018-09-06T09:22:59.935Z,20.90
2018-09-06T09:25:28.859Z,21.00
2018-09-06T09:27:57.776Z,21.10
2018-09-06T09:30:26.763Z,21.20
2018-09-06T09:32:55.719Z,21.30
2018-09-06T09:35:24.604Z,21.50
2018-09-06T09:37:53.522Z,21.60
2018-09-06T09:40:22.408Z,21.60
2018-09-06T09:42:51.300Z,21.60
2018-09-06T09:45:20.216Z,21.70
2018-09-06T09:47:49.112Z,21.80
2018-09-06T09:52:46.429Z,22.00
2018-09-06T09:55:15.317Z,22.00
2018-09-06T09:57:44.217Z,22.10
2018-09-06T10:00:13.125Z,22.30
2018-09-06T10:02:47.564Z,22.40
2018-09-06T10:05:22.093Z,22.40
2018-09-06T10:07:56.016Z,22.50
2018-09-06T10:10:25.591Z,22.60
2018-09-06T10:12:54.475Z,22.70
2018-09-06T10:15:23.515Z,22.70
2018-09-06T10:17:52.437Z,22.70
2018-09-06T10:20:21.376Z,22.70
2018-09-06T10:22:50.320Z,22.80
2018-09-06T10:25:19.209Z,22.80
2018-09-06T10:27:48.191Z,22.90
2018-09-06T10:30:17.103Z,22.90
2018-09-06T10:32:46.171Z,22.90
2018-09-06T10:35:15.240Z,23.10
2018-09-06T10:37:44.284Z,23.10
2018-09-06T10:40:13.171Z,23.20
2018-09-06T10:42:42.306Z,23.20
2018-09-06T10:45:14.014Z,23.30
2018-09-06T10:47:43.088Z,23.40
2018-09-06T10:50:12.005Z,23.50
2018-09-06T10:52:40.930Z,23.50
2018-09-06T10:55:09.895Z,23.50
2018-09-06T10:57:39.841Z,23.70
2018-09-06T11:00:08.820Z,23.70
2018-09-06T11:02:37.862Z,23.80
2018-09-06T11:05:06.808Z,24.00
2018-09-06T11:07:35.684Z,24.10
2018-09-06T11:10:04.744Z,24.20
2018-09-06T11:12:33.600Z,24.30
2018-09-06T11:15:02.572Z,24.40
2018-09-06T11:17:31.461Z,24.50
2018-09-06T11:20:00.335Z,24.70
2018-09-06T11:22:29.389Z,24.80
2018-09-06T11:24:58.063Z,24.90
2018-09-06T11:27:26.947Z,25.10
2018-09-06T11:29:55.827Z,25.10
2018-09-06T11:32:24.721Z,25.30
2018-09-06T11:34:53.628Z,25.50
2018-09-06T11:37:22.555Z,25.80
2018-09-06T11:39:51.483Z,25.90
2018-09-06T11:42:20.330Z,26.20
2018-09-06T11:44:49.209Z,26.20
2018-09-06T11:47:18.149Z,26.30
2018-09-06T11:49:47.047Z,26.30
2018-09-06T11:52:15.991Z,26.60
2018-09-06T11:54:44.901Z,26.70
2018-09-06T11:57:13.783Z,26.70
2018-09-06T11:59:42.717Z,26.80
2018-09-06T12:02:11.719Z,26.80
2018-09-06T12:04:40.629Z,26.90
2018-09-06T12:07:09.596Z,27.20
2018-09-06T12:09:38.468Z,27.40
2018-09-06T12:12:07.384Z,27.60
2018-09-06T12:14:36.255Z,27.80
2018-09-06T12:17:05.185Z,28.10
2018-09-06T12:19:34.165Z,28.20
2018-09-06T12:22:03.543Z,28.50
2018-09-06T12:24:32.491Z,28.80
2018-09-06T12:27:01.375Z,28.80
2018-09-06T12:29:30.444Z,28.70
2018-09-06T12:31:59.324Z,28.90
2018-09-06T12:34:28.336Z,29.20
2018-09-06T12:36:57.163Z,29.20
2018-09-06T12:39:26.168Z,29.30
2018-09-06T12:41:55.156Z,29.30
2018-09-06T12:44:24.092Z,29.40
2018-09-06T12:46:53.015Z,29.40
2018-09-06T12:49:22.194Z,29.40
2018-09-06T12:51:51.136Z,29.50
2018-09-06T12:54:20.181Z,29.60
2018-09-06T12:56:49.052Z,29.80
2018-09-06T12:59:17.964Z,29.80
2018-09-06T13:01:46.838Z,29.90
2018-09-06T13:04:15.743Z,29.70
2018-09-06T13:06:44.615Z,29.70
2018-09-06T13:09:13.488Z,29.90
2018-09-06T13:11:42.480Z,30.00
2018-09-06T13:14:11.352Z,30.10
2018-09-06T13:16:40.245Z,30.30
2018-09-06T13:19:09.152Z,30.40
2018-09-06T13:21:38.161Z,30.50
2018-09-06T13:24:07.036Z,30.80
2018-09-06T13:26:35.899Z,30.80
2018-09-06T13:29:04.897Z,30.80
2018-09-06T13:31:33.843Z,30.90
2018-09-06T13:34:02.739Z,30.90
2018-09-06T13:36:31.648Z,30.70
2018-09-06T13:39:00.528Z,30.30
2018-09-06T13:41:29.904Z,30.10
2018-09-06T13:43:58.744Z,29.70
2018-09-06T13:46:27.626Z,29.80
2018-09-06T13:48:56.522Z,29.80
2018-09-06T13:51:25.394Z,29.90
2018-09-06T13:53:54.351Z,30.00
2018-09-06T13:56:23.289Z,30.10
2018-09-06T13:58:52.139Z,30.20
2018-09-06T14:01:21.040Z,30.30
2018-09-06T14:03:49.894Z,30.50
2018-09-06T14:06:18.826Z,30.70
2018-09-06T14:08:47.698Z,30.50
2018-09-06T14:11:16.537Z,30.50
2018-09-06T14:13:45.432Z,30.50
2018-09-06T14:16:14.373Z,30.40
2018-09-06T14:19:46.342Z,30.20
2018-09-06T14:22:15.198Z,30.40
2018-09-06T14:24:44.102Z,30.50
2018-09-06T14:27:13.068Z,30.60
2018-09-06T14:29:42.233Z,30.40
2018-09-06T14:32:11.165Z,30.40
2018-09-06T14:34:39.984Z,30.60
2018-09-06T14:37:08.904Z,30.50
2018-09-06T14:39:37.859Z,30.50
2018-09-06T14:42:06.778Z,30.70
2018-09-06T14:44:35.772Z,30.50
2018-09-06T14:47:04.835Z,30.50
2018-09-06T14:49:33.788Z,30.20
2018-09-06T14:52:02.649Z,30.00
2018-09-06T14:54:31.522Z,30.00
2018-09-06T14:57:00.411Z,29.90
2018-09-06T14:59:29.760Z,30.00
2018-09-06T15:01:58.716Z,29.50
2018-09-06T15:04:27.634Z,29.50
2018-09-06T15:06:56.491Z,29.50
2018-09-06T15:09:25.520Z,29.10
2018-09-06T15:11:54.403Z,28.90
2018-09-06T15:14:23.296Z,28.40
2018-09-06T15:16:52.180Z,28.10
2018-09-06T15:19:21.169Z,28.00
2018-09-06T15:21:50.053Z,28.10
2018-09-06T15:24:18.950Z,28.30
2018-09-06T15:26:47.937Z,28.20
2018-09-06T15:29:16.887Z,27.90
2018-09-06T15:31:45.745Z,27.80
2018-09-06T15:34:14.652Z,28.00
2018-09-06T15:36:43.540Z,27.70
2018-09-06T15:39:12.584Z,27.60
2018-09-06T15:41:41.475Z,27.50
2018-09-06T15:44:10.340Z,27.40
2018-09-06T15:46:39.227Z,27.40
2018-09-06T15:49:08.176Z,27.00
2018-09-06T15:51:37.174Z,26.50
2018-09-06T15:54:06.261Z,26.20
2018-09-06T15:56:35.124Z,26.30
2018-09-06T15:59:04.254Z,26.50
2018-09-06T16:01:33.168Z,26.60
2018-09-06T16:04:02.068Z,26.60
2018-09-06T16:06:30.948Z,26.50
2018-09-06T16:08:59.863Z,26.40
2018-09-06T16:11:28.874Z,26.40
2018-09-06T16:13:57.820Z,26.10
2018-09-06T16:16:26.698Z,25.90
2018-09-06T16:18:55.673Z,25.80
2018-09-06T16:21:24.572Z,25.90
2018-09-06T16:23:53.564Z,25.70
2018-09-06T16:26:22.419Z,25.50
2018-09-06T16:28:52.044Z,25.30
2018-09-06T16:31:21.226Z,25.30
2018-09-06T16:33:50.259Z,25.30
2018-09-06T16:36:20.195Z,25.10
2018-09-06T16:38:49.276Z,25.10
2018-09-06T16:41:18.175Z,25.10
2018-09-06T16:43:47.071Z,25.00
2018-09-06T16:46:15.995Z,25.10
2018-09-06T16:48:45.087Z,25.00
2018-09-06T16:51:13.964Z,25.10
2018-09-06T16:53:42.830Z,25.00
2018-09-06T16:56:11.691Z,25.10
2018-09-06T16:58:40.677Z,25.10
2018-09-06T17:01:09.638Z,25.10
2018-09-06T17:03:38.529Z,25.10
2018-09-06T17:06:07.869Z,25.00
2018-09-06T17:08:36.972Z,24.90
2018-09-06T17:11:06.010Z,24.80
2018-09-06T17:13:34.964Z,24.70
2018-09-06T17:16:03.862Z,24.60
2018-09-06T17:18:32.814Z,24.60
2018-09-06T17:21:01.827Z,24.50
2018-09-06T17:23:30.825Z,24.50
2018-09-06T17:25:59.723Z,24.40
2018-09-06T17:28:28.903Z,24.30
2018-09-06T17:30:57.812Z,24.30
2018-09-06T17:33:26.775Z,24.20
2018-09-06T17:35:55.684Z,24.20
2018-09-06T17:38:24.592Z,24.10
2018-09-06T17:40:53.907Z,24.00
2018-09-06T17:43:22.747Z,23.90
2018-09-06T17:45:52.128Z,23.80
2018-09-06T17:48:21.102Z,23.70
2018-09-06T17:50:49.999Z,23.60
2018-09-06T17:53:19.078Z,23.60
2018-09-06T17:55:47.944Z,23.50
2018-09-06T17:58:16.848Z,23.40
2018-09-06T18:01:04.032Z,23.40
2018-09-06T18:03:32.904Z,23.40
2018-09-06T18:06:01.880Z,23.30
2018-09-06T18:08:30.873Z,23.20
2018-09-06T18:10:59.835Z,23.10
2018-09-06T18:13:28.684Z,23.00
2018-09-06T18:15:57.672Z,22.90
2018-09-06T18:18:26.613Z,22.80
2018-09-06T18:20:55.503Z,22.80
2018-09-06T18:23:25.145Z,22.80
2018-09-06T18:25:54.063Z,22.70
2018-09-06T18:28:23.020Z,22.60
2018-09-06T18:30:51.935Z,22.70
2018-09-06T18:33:20.864Z,22.60
2018-09-06T18:35:49.932Z,22.60
2018-09-06T18:38:18.821Z,22.60
2018-09-06T18:40:47.740Z,22.50
2018-09-06T18:43:17.600Z,22.40
2018-09-06T18:45:46.492Z,22.30
2018-09-06T18:48:16.112Z,22.20
2018-09-06T18:50:45.243Z,22.10
2018-09-06T18:53:14.191Z,22.10
2018-09-06T18:55:43.136Z,22.00
2018-09-06T18:58:13.028Z,22.00
2018-09-06T19:00:42.026Z,22.00
2018-09-06T19:03:11.036Z,21.90
2018-09-06T19:05:39.984Z,21.90
2018-09-06T19:08:10.436Z,21.90
2018-09-06T19:10:39.411Z,21.80
2018-09-06T19:13:08.355Z,21.80
2018-09-06T19:15:37.565Z,21.80
2018-09-06T19:18:06.697Z,21.70
2018-09-06T19:20:35.621Z,21.70
2018-09-06T19:23:04.642Z,21.70
2018-09-06T19:25:33.527Z,21.70
2018-09-06T19:28:02.480Z,21.80
2018-09-06T19:30:31.600Z,21.80
2018-09-06T19:33:00.527Z,21.70
2018-09-06T19:35:29.674Z,21.70
2018-09-06T19:37:59.058Z,21.70
2018-09-06T19:40:28.264Z,21.70
2018-09-06T19:42:57.955Z,21.70
2018-09-06T19:45:26.918Z,21.60
2018-09-06T19:47:55.940Z,21.60
2018-09-06T19:50:24.939Z,21.60
2018-09-06T19:52:53.899Z,21.50
2018-09-06T19:55:22.752Z,21.50
2018-09-06T19:57:51.890Z,21.50
2018-09-06T20:00:22.189Z,21.40
2018-09-06T20:02:51.212Z,21.40
2018-09-06T20:05:20.168Z,21.40
2018-09-06T20:07:49.149Z,21.40
2018-09-06T20:10:19.175Z,21.40
2018-09-06T20:12:48.925Z,21.40
2018-09-06T20:15:18.501Z,21.40
2018-09-06T20:17:48.426Z,21.40
2018-09-06T20:20:17.351Z,21.40
2018-09-06T20:22:46.322Z,21.40
2018-09-06T20:25:15.167Z,21.30
2018-09-06T20:27:44.056Z,21.30
2018-09-06T20:30:13.071Z,21.30
2018-09-06T20:32:42.541Z,21.30
2018-09-06T20:35:11.531Z,21.30
2018-09-06T20:37:40.475Z,21.20
2018-09-06T20:40:09.407Z,21.20
2018-09-06T20:42:38.307Z,21.20
2018-09-06T20:45:07.276Z,21.20
2018-09-06T20:47:36.211Z,21.20
2018-09-06T20:50:05.473Z,21.20
2018-09-06T20:52:34.400Z,21.20
2018-09-06T20:55:03.628Z,21.20
2018-09-06T20:57:32.894Z,21.30
2018-09-06T21:00:02.204Z,21.20
2018-09-06T21:02:36.864Z,21.20
2018-09-06T21:05:07.780Z,21.10
2018-09-06T21:07:36.860Z,21.10
2018-09-06T21:10:06.255Z,21.10
2018-09-06T21:12:35.131Z,21.10
2018-09-06T21:15:04.110Z,21.10
2018-09-06T21:17:33.124Z,21.00
2018-09-06T21:20:02.136Z,21.00
2018-09-06T21:22:31.052Z,20.90
2018-09-06T21:24:59.976Z,20.90
2018-09-06T21:27:29.674Z,20.90
2018-09-06T21:29:58.659Z,20.90
2018-09-06T21:32:27.504Z,20.90
2018-09-06T21:34:56.507Z,20.90
2018-09-06T21:37:25.386Z,20.80
2018-09-06T21:39:54.491Z,20.70
2018-09-06T21:42:23.357Z,20.70
2018-09-06T21:44:52.335Z,20.80
2018-09-06T21:47:21.191Z,20.80
2018-09-06T21:49:50.151Z,20.80
2018-09-06T21:52:19.086Z,20.80
2018-09-06T21:54:48.065Z,20.80
2018-09-06T21:57:17.038Z,20.80
2018-09-06T21:59:45.982Z,20.70
2018-09-06T22:02:20.402Z,20.70
2018-09-06T22:04:49.364Z,20.70
2018-09-06T22:07:18.273Z,20.70
2018-09-06T22:09:47.536Z,20.70
2018-09-06T22:12:17.905Z,20.60
2018-09-06T22:14:48.980Z,20.60
2018-09-06T22:17:17.924Z,20.60
2018-09-06T22:19:47.374Z,20.60
2018-09-06T22:22:16.379Z,20.60
2018-09-06T22:24:45.476Z,20.60
2018-09-06T22:27:14.396Z,20.50
2018-09-06T22:29:43.303Z,20.50
2018-09-06T22:32:12.667Z,20.50
2018-09-06T22:34:41.870Z,20.50
2018-09-06T22:37:10.787Z,20.40
2018-09-06T22:39:40.025Z,20.40
2018-09-06T22:42:08.956Z,20.40
2018-09-06T22:44:37.895Z,20.30
2018-09-06T22:47:06.847Z,20.30
2018-09-06T22:49:35.801Z,20.20
2018-09-06T22:52:05.071Z,20.30
2018-09-06T22:54:34.124Z,20.20
2018-09-06T22:57:03.036Z,20.30
2018-09-06T22:59:32.005Z,20.20
2018-09-06T23:02:02.630Z,20.20
2018-09-06T23:04:31.796Z,20.20
2018-09-06T23:07:00.673Z,20.20
2018-09-06T23:09:29.748Z,20.20
2018-09-06T23:11:58.643Z,20.20
2018-09-06T23:14:27.539Z,20.20
2018-09-06T23:16:56.715Z,20.10
2018-09-06T23:19:25.676Z,20.10
2018-09-06T23:21:54.848Z,20.10
2018-09-06T23:24:23.738Z,20.10
2018-09-06T23:26:52.701Z,20.10
2018-09-06T23:29:21.796Z,20.10
2018-09-06T23:31:50.721Z,20.10
2018-09-06T23:34:19.664Z,20.00
2018-09-06T23:36:48.568Z,20.00
2018-09-06T23:39:17.491Z,19.90
2018-09-06T23:42:10.272Z,19.90
2018-09-06T23:44:42.748Z,19.90
2018-09-06T23:47:11.676Z,19.90
2018-09-06T23:49:40.613Z,19.90
2018-09-06T23:52:09.572Z,19.90
2018-09-06T23:54:38.434Z,19.80
2018-09-06T23:57:07.388Z,19.80
2018-09-06T23:59:36.422Z,19.80
